createdAt,value
2023-04-06T00:02:53.358Z,98226.13
2023-04-06T00:07:57.139Z,98219.19
2023-04-06T00:13:01.181Z,98221.13
2023-04-06T00:18:04.481Z,98209.19
2023-04-06T00:23:07.349Z,98220.72
2023-04-06T00:28:09.950Z,98209.81
2023-04-06T00:33:12.676Z,98217.59
2023-04-06T00:38:16.960Z,98209.44
2023-04-06T00:43:19.788Z,98213.94
2023-04-06T00:48:22.488Z,98207.44
2023-04-06T00:53:25.121Z,98197.09
2023-04-06T00:58:29.152Z,98195.94
2023-04-06T01:03:39.657Z,98199.06
2023-04-06T01:08:43.319Z,98189.88
2023-04-06T01:13:53.643Z,98196.06
2023-04-06T01:19:11.000Z,98189.84
2023-04-06T01:24:15.966Z,98190.56
2023-04-06T01:29:34.090Z,98191.06
2023-04-06T01:34:38.812Z,98190.44
2023-04-06T01:39:44.520Z,98187.13
2023-04-06T01:44:53.793Z,98176.78
2023-04-06T01:49:56.582Z,98182.94
2023-04-06T01:55:00.203Z,98174.47
2023-04-06T02:00:25.054Z,98172.91
2023-04-06T02:05:32.519Z,98161.38
2023-04-06T02:10:36.478Z,98168.34
2023-04-06T02:15:48.048Z,98164.47
2023-04-06T02:20:50.771Z,98162.91
2023-04-06T02:25:53.646Z,98165.22
2023-04-06T02:30:56.369Z,98165.16
2023-04-06T02:36:03.028Z,98166.72
2023-04-06T02:41:06.217Z,98157.50
2023-04-06T02:46:09.089Z,98154.41
2023-04-06T02:51:14.892Z,98158.25
2023-04-06T02:56:22.728Z,98153.56
2023-04-06T03:01:28.349Z,98149.75
2023-04-06T03:06:35.610Z,98152.09
2023-04-06T03:11:49.117Z,98153.56
2023-04-06T03:16:51.943Z,98148.22
2023-04-06T03:21:57.947Z,98144.78
2023-04-06T03:27:01.597Z,98141.69
2023-04-06T03:32:05.525Z,98148.66
2023-04-06T03:37:12.914Z,98155.22
2023-04-06T03:42:23.101Z,98153.66
2023-04-06T03:47:29.680Z,98165.88
2023-04-06T03:52:37.674Z,98160.56
2023-04-06T03:57:40.679Z,98163.72
2023-04-06T04:02:43.304Z,98164.47
2023-04-06T04:07:46.346Z,98167.91
2023-04-06T04:12:49.425Z,98166.81
2023-04-06T04:17:52.219Z,98175.25
2023-04-06T04:22:54.906Z,98172.91
2023-04-06T04:27:57.831Z,98176.00
2023-04-06T04:33:01.324Z,98176.78
2023-04-06T04:38:05.157Z,98170.56
2023-04-06T04:43:09.929Z,98175.59
2023-04-06T04:48:12.604Z,98181.41
2023-04-06T04:53:26.345Z,98182.13
2023-04-06T04:58:34.663Z,98180.28
2023-04-06T05:03:40.170Z,98186.03
2023-04-06T05:08:48.324Z,98189.13
2023-04-06T05:13:52.026Z,98187.56
2023-04-06T05:18:58.705Z,98182.09
2023-04-06T05:24:08.445Z,98193.69
2023-04-06T05:29:12.471Z,98197.53
2023-04-06T05:34:17.160Z,98201.75
2023-04-06T05:39:20.648Z,98195.50
2023-04-06T05:44:28.157Z,98202.63
2023-04-06T05:49:39.733Z,98213.31
2023-04-06T05:54:48.432Z,98202.28
2023-04-06T05:59:51.170Z,98204.75
2023-04-06T06:04:55.686Z,98204.28
2023-04-06T06:10:01.139Z,98217.84
2023-04-06T06:15:08.806Z,98210.63
2023-04-06T06:20:16.426Z,98222.75
2023-04-06T06:25:22.518Z,98217.25
2023-04-06T06:30:27.369Z,98213.00
2023-04-06T06:35:30.231Z,98214.84
2023-04-06T06:40:35.644Z,98211.19
2023-04-06T06:45:39.574Z,98219.16
2023-04-06T06:50:42.485Z,98217.88
2023-04-06T06:55:45.854Z,98223.28
2023-04-06T07:00:49.091Z,98222.69
2023-04-06T07:05:55.482Z,98219.53
2023-04-06T07:11:00.065Z,98227.09
2023-04-06T07:16:02.760Z,98230.03
2023-04-06T07:21:06.272Z,98227.09
2023-04-06T07:26:08.962Z,98230.56
2023-04-06T07:31:13.729Z,98224.78
2023-04-06T07:36:16.937Z,98222.16
2023-04-06T07:41:20.509Z,98223.16
2023-04-06T07:46:23.813Z,98224.78
2023-04-06T07:51:27.480Z,98231.19
2023-04-06T07:56:30.569Z,98215.06
2023-04-06T08:01:33.277Z,98217.88
2023-04-06T08:06:37.512Z,98215.81
2023-04-06T08:11:40.161Z,98221.81
2023-04-06T08:16:43.068Z,98220.38
2023-04-06T08:21:49.375Z,98221.88
2023-04-06T08:26:52.577Z,98225.72
2023-04-06T08:31:55.351Z,98222.66
2023-04-06T08:37:01.348Z,98219.91
2023-04-06T08:42:04.406Z,98223.94
2023-04-06T08:47:07.939Z,98217.63
2023-04-06T08:52:12.593Z,98216.28
2023-04-06T08:57:16.778Z,98216.78
2023-04-06T09:02:20.506Z,98212.25
2023-04-06T09:07:23.414Z,98207.09
2023-04-06T09:12:30.618Z,98197.81
2023-04-06T09:17:34.890Z,98200.31
2023-04-06T09:22:42.536Z,98212.97
2023-04-06T09:27:45.684Z,98210.69
2023-04-06T09:32:53.207Z,98206.28
2023-04-06T09:37:56.581Z,98208.94
2023-04-06T09:43:00.589Z,98199.38
2023-04-06T09:48:04.891Z,98196.34
2023-04-06T09:53:09.102Z,98189.38
2023-04-06T09:58:27.598Z,98186.66
2023-04-06T10:03:52.352Z,98184.84
2023-04-06T10:08:57.549Z,98186.13
2023-04-06T10:14:00.813Z,98193.56
2023-04-06T10:19:22.929Z,98185.69
2023-04-06T10:24:26.215Z,98181.44
2023-04-06T10:29:29.237Z,98176.81
2023-04-06T10:34:37.053Z,98171.16
2023-04-06T10:39:49.367Z,98167.13
2023-04-06T10:44:52.122Z,98167.44
2023-04-06T10:49:54.742Z,98173.44
2023-04-06T10:54:58.133Z,98171.06
2023-04-06T11:00:00.719Z,98163.56
2023-04-06T11:05:03.718Z,98169.47
2023-04-06T11:10:16.717Z,98159.34
2023-04-06T11:15:21.763Z,98164.75
2023-04-06T11:20:24.521Z,98150.84
2023-04-06T11:25:28.876Z,98138.50
2023-04-06T11:30:31.580Z,98140.22
2023-04-06T11:35:35.781Z,98122.59
2023-04-06T11:40:38.412Z,98127.50
2023-04-06T11:45:44.667Z,98124.59
2023-04-06T11:50:56.143Z,98122.38
2023-04-06T11:55:59.042Z,98109.44
2023-04-06T12:01:07.645Z,98101.63
2023-04-06T12:06:10.387Z,98099.94
2023-04-06T12:11:13.856Z,98098.13
2023-04-06T12:16:17.164Z,98100.97
2023-04-06T12:21:20.061Z,98085.56
2023-04-06T12:26:26.746Z,98090.47
2023-04-06T12:31:29.486Z,98086.69
2023-04-06T12:36:32.659Z,98065.88
2023-04-06T12:41:35.621Z,98066.81
2023-04-06T12:46:38.270Z,98068.13
2023-04-06T12:51:40.922Z,98062.03
2023-04-06T12:56:43.698Z,98068.50
2023-04-06T13:01:46.847Z,98066.38
2023-04-06T13:06:50.473Z,98054.56
2023-04-06T13:11:53.181Z,98056.75
2023-04-06T13:16:55.953Z,98057.50
2023-04-06T13:21:58.663Z,98044.31
2023-04-06T13:27:01.901Z,98045.44
2023-04-06T13:32:04.733Z,98037.00
2023-04-06T13:37:07.481Z,98028.13
2023-04-06T13:42:11.186Z,98028.00
2023-04-06T13:47:14.221Z,98032.16
2023-04-06T13:52:17.371Z,98023.66
2023-04-06T13:57:20.297Z,98029.16
2023-04-06T14:02:28.545Z,98027.88
2023-04-06T14:07:31.628Z,98028.34
2023-04-06T14:12:34.247Z,98012.31
2023-04-06T14:17:36.841Z,98018.88
2023-04-06T14:22:39.446Z,98015.19
2023-04-06T14:27:42.072Z,98006.69
2023-04-06T14:32:44.678Z,98015.75
2023-04-06T14:37:48.511Z,98014.28
2023-04-06T14:42:53.960Z,98007.91
2023-04-06T14:47:56.585Z,98004.09
2023-04-06T14:52:59.345Z,98004.50
2023-04-06T14:58:01.930Z,97998.19
2023-04-06T15:03:05.085Z,97995.25
2023-04-06T15:08:07.896Z,98001.34
2023-04-06T15:13:10.493Z,97986.38
2023-04-06T15:18:14.890Z,97993.94
2023-04-06T15:23:17.881Z,97994.06
2023-04-06T15:28:20.856Z,98000.53
2023-04-06T15:33:23.396Z,97998.56
2023-04-06T15:38:25.951Z,98003.00
2023-04-06T15:43:28.683Z,98000.16
2023-04-06T15:48:32.154Z,97998.25
2023-04-06T15:53:36.306Z,98005.00
2023-04-06T15:58:40.657Z,98007.75
2023-04-06T16:03:43.942Z,97998.72
2023-04-06T16:08:47.333Z,97997.66
2023-04-06T16:13:55.235Z,97998.34
2023-04-06T16:18:58.078Z,98005.88
2023-04-06T16:24:01.011Z,98001.50
2023-04-06T16:29:03.968Z,98001.69
2023-04-06T16:34:07.292Z,98012.66
2023-04-06T16:39:10.264Z,98009.38
2023-04-06T16:44:13.263Z,98014.97
2023-04-06T16:49:17.743Z,98010.47
2023-04-06T16:54:20.609Z,98010.53
2023-04-06T16:59:23.453Z,98009.31
2023-04-06T17:04:26.172Z,98015.75
2023-04-06T17:09:28.787Z,98019.44
2023-04-06T17:14:31.483Z,98018.88
2023-04-06T17:19:34.026Z,98020.38
2023-04-06T17:24:36.600Z,98021.34
2023-04-06T17:29:39.218Z,98019.84
2023-04-06T17:34:41.741Z,98024.09
2023-04-06T17:39:44.691Z,98022.56
2023-04-06T17:44:52.411Z,98024.69
2023-04-06T17:49:55.621Z,98034.16
2023-04-06T17:54:58.340Z,98045.28
2023-04-06T18:00:00.899Z,98052.41
2023-04-06T18:05:03.840Z,98055.59
2023-04-06T18:10:07.177Z,98053.84
2023-04-06T18:15:09.915Z,98057.81
2023-04-06T18:20:14.270Z,98052.91
2023-04-06T18:25:19.017Z,98061.75
2023-04-06T18:30:21.764Z,98069.53
2023-04-06T18:35:24.408Z,98070.59
2023-04-06T18:40:40.556Z,98069.91
2023-04-06T18:45:46.195Z,98078.13
2023-04-06T18:51:00.130Z,98078.78
2023-04-06T18:56:03.826Z,98085.59
2023-04-06T19:01:06.958Z,98089.22
2023-04-06T19:06:09.470Z,98091.78
2023-04-06T19:11:12.170Z,98095.44
2023-04-06T19:16:14.692Z,98097.41
2023-04-06T19:21:21.705Z,98111.41
2023-04-06T19:26:28.062Z,98109.56
2023-04-06T19:31:30.862Z,98106.06
2023-04-06T19:36:33.598Z,98116.31
2023-04-06T19:41:36.527Z,98110.63
2023-04-06T19:46:39.218Z,98110.16
2023-04-06T19:51:41.799Z,98116.06
2023-04-06T19:56:44.447Z,98117.94
2023-04-06T20:01:47.372Z,98118.56
2023-04-06T20:06:51.338Z,98126.41
2023-04-06T20:11:54.574Z,98124.56
2023-04-06T20:16:57.427Z,98130.16
2023-04-06T20:22:03.345Z,98124.94
2023-04-06T20:27:06.401Z,98134.38
2023-04-06T20:32:10.112Z,98138.81
2023-04-06T20:37:12.857Z,98130.22
2023-04-06T20:42:15.459Z,98138.91
2023-04-06T20:47:18.447Z,98139.03
2023-04-06T20:52:21.459Z,98135.78
2023-04-06T20:57:25.806Z,98137.84
2023-04-06T21:02:28.739Z,98135.81
2023-04-06T21:07:31.607Z,98129.84
2023-04-06T21:12:34.146Z,98132.56
2023-04-06T21:17:36.964Z,98132.72
2023-04-06T21:22:39.732Z,98132.97
2023-04-06T21:27:42.288Z,98128.97
2023-04-06T21:32:45.069Z,98123.22
2023-04-06T21:37:48.103Z,98118.56
2023-04-06T21:42:51.079Z,98123.03
2023-04-06T21:47:53.963Z,98131.72
2023-04-06T21:52:56.584Z,98130.22
2023-04-06T21:57:59.363Z,98126.25
2023-04-06T22:03:02.272Z,98127.97
2023-04-06T22:08:05.175Z,98116.53
2023-04-06T22:13:07.813Z,98111.31
2023-04-06T22:18:10.526Z,98114.47
2023-04-06T22:23:13.332Z,98114.03
2023-04-06T22:28:15.974Z,98118.28
2023-04-06T22:33:19.173Z,98114.03
2023-04-06T22:38:21.849Z,98110.31
2023-04-06T22:43:24.388Z,98105.75
2023-04-06T22:48:27.008Z,98096.53
2023-04-06T22:53:29.569Z,98088.59
2023-04-06T22:58:32.088Z,98089.50
2023-04-06T23:03:34.889Z,98078.03
2023-04-06T23:08:37.472Z,98074.16
2023-04-06T23:13:40.756Z,98061.00
2023-04-06T23:18:43.296Z,98049.00
2023-04-06T23:23:46.248Z,98044.84
2023-04-06T23:28:49.140Z,98038.09
2023-04-06T23:33:51.847Z,98036.28
2023-04-06T23:38:54.548Z,98029.91
2023-04-06T23:43:57.239Z,98032.47
2023-04-06T23:48:59.921Z,98033.66
2023-04-06T23:54:02.541Z,98026.53
2023-04-06T23:59:07.626Z,98018.38
